Time;durP1;ratioP1;P1;durP2;ratioP2;P2;SDS_P1;SDS_P2;PMS_P1;PMS_P2;Temp;Humidity;BMP_temperature;BMP_pressure;BME280_temperature;BME280_humidity;BME280_pressure;Samples;Min_cycle;Max_cycle;Signal;HPM_P1;HPM_P2
2022/07/30 00:01:35;;;;;;;15.77;11.68;;;18.20;99.90;;;;;;5073187;28;20087;-67
2022/07/30 00:04:03;;;;;;;14.63;11.27;;;18.20;99.90;;;;;;5072248;28;20092;-67
2022/07/30 00:06:31;;;;;;;14.75;10.75;;;18.20;99.90;;;;;;5073611;28;20047;-67
2022/07/30 00:08:58;;;;;;;11.73;10.35;;;18.30;99.90;;;;;;5072488;28;20498;-68
2022/07/30 00:11:26;;;;;;;12.98;10.18;;;18.30;99.90;;;;;;5065770;28;20502;-68
2022/07/30 00:13:54;;;;;;;13.50;12.00;;;18.30;99.90;;;;;;5074287;28;20077;-68
2022/07/30 00:16:22;;;;;;;13.20;11.38;;;18.40;99.90;;;;;;5066438;28;20049;-68
2022/07/30 00:18:49;;;;;;;11.68;9.90;;;18.30;99.90;;;;;;5074527;28;20520;-68
2022/07/30 00:21:18;;;;;;;13.77;11.48;;;18.30;99.90;;;;;;5060115;28;20040;-69
2022/07/30 00:24:03;;;;;;;12.85;10.85;;;18.20;99.90;;;;;;5071177;28;20040;-68
2022/07/30 00:26:30;;;;;;;14.23;11.27;;;18.20;99.90;;;;;;5061086;28;20051;-68
2022/07/30 00:28:58;;;;;;;12.65;11.18;;;18.10;99.90;;;;;;5067054;28;20036;-68
2022/07/30 00:31:25;;;;;;;15.00;11.57;;;18.10;99.90;;;;;;5083713;28;20455;-68
2022/07/30 00:33:53;;;;;;;17.25;12.65;;;18.10;99.90;;;;;;5063543;28;20055;-70
2022/07/30 00:36:21;;;;;;;13.77;11.40;;;18.10;99.90;;;;;;5082078;28;20503;-70
2022/07/30 00:38:49;;;;;;;14.98;13.02;;;18.10;99.90;;;;;;5083148;28;20678;-68
2022/07/30 00:41:17;;;;;;;16.23;12.90;;;18.10;99.90;;;;;;5065476;28;20043;-67
2022/07/30 00:43:44;;;;;;;15.55;12.70;;;18.20;99.90;;;;;;5077079;28;20147;-67
2022/07/30 00:46:13;;;;;;;15.68;12.50;;;18.20;99.90;;;;;;5067885;28;20044;-67
2022/07/30 00:48:41;;;;;;;16.33;13.45;;;18.20;99.90;;;;;;5067375;28;20142;-67
2022/07/30 00:51:09;;;;;;;14.27;11.68;;;18.30;99.90;;;;;;5084835;28;20109;-67
2022/07/30 00:53:37;;;;;;;15.73;13.15;;;18.30;99.90;;;;;;5074728;28;20055;-67
2022/07/30 00:56:05;;;;;;;17.92;14.40;;;18.30;99.90;;;;;;5061656;28;20079;-67
2022/07/30 00:58:32;;;;;;;15.13;12.15;;;18.20;99.90;;;;;;5073022;28;20444;-67
2022/07/30 01:01:00;;;;;;;15.63;12.75;;;18.20;99.90;;;;;;5064857;28;20404;-67
2022/07/30 01:03:28;;;;;;;13.90;11.85;;;18.20;99.90;;;;;;5082596;28;20117;-67
2022/07/30 01:05:55;;;;;;;16.52;12.80;;;18.10;99.90;;;;;;5058608;28;20040;-67
2022/07/30 01:08:23;;;;;;;17.30;13.50;;;18.10;99.90;;;;;;5072658;28;20056;-67
2022/07/30 01:10:51;;;;;;;17.73;13.38;;;18.00;99.90;;;;;;5072841;28;20040;-67
2022/07/30 01:13:19;;;;;;;14.43;12.07;;;18.00;99.90;;;;;;5065246;28;20110;-67
2022/07/30 01:15:47;;;;;;;15.73;12.05;;;17.90;99.90;;;;;;5080108;28;20036;-69
2022/07/30 01:18:16;;;;;;;16.77;13.80;;;17.90;99.90;;;;;;5070362;28;20090;-67
2022/07/30 01:21:04;;;;;;;13.70;11.85;;;17.80;99.90;;;;;;5077639;28;20036;-67
2022/07/30 01:23:40;;;;;;;16.13;12.45;;;17.80;99.90;;;;;;5071986;28;20047;-67
2022/07/30 01:26:13;;;;;;;16.40;12.75;;;17.70;99.90;;;;;;5075783;28;20154;-66
2022/07/30 01:28:48;;;;;;;17.55;13.30;;;17.70;99.90;;;;;;5072503;28;20124;-67
2022/07/30 01:31:18;;;;;;;21.10;14.05;;;17.70;99.90;;;;;;5067453;28;20514;-66
2022/07/30 01:33:48;;;;;;;16.23;14.13;;;17.60;99.90;;;;;;5080739;28;20371;-67
2022/07/30 01:36:19;;;;;;;19.48;14.38;;;17.60;99.90;;;;;;5072662;28;20036;-67
2022/07/30 01:38:48;;;;;;;17.80;14.55;;;17.50;99.90;;;;;;5042376;28;20041;-67
2022/07/30 01:41:18;;;;;;;18.30;15.43;;;17.50;99.90;;;;;;5066451;28;20118;-67
2022/07/30 01:43:46;;;;;;;22.52;15.30;;;17.50;99.90;;;;;;5081871;28;20529;-67
2022/07/30 01:46:16;;;;;;;18.58;15.07;;;17.60;99.90;;;;;;5084436;28;20417;-67
2022/07/30 01:48:46;;;;;;;18.83;16.00;;;17.50;99.90;;;;;;5075535;28;20414;-68
2022/07/30 01:51:17;;;;;;;18.30;15.98;;;17.50;99.90;;;;;;5069341;28;20579;-68
2022/07/30 01:53:50;;;;;;;20.05;16.38;;;17.50;99.90;;;;;;5057232;28;20044;-67
2022/07/30 01:56:20;;;;;;;20.30;16.77;;;17.50;99.90;;;;;;5073322;28;20347;-67
2022/07/30 01:58:54;;;;;;;22.17;15.77;;;17.40;99.90;;;;;;5086761;28;20074;-68
2022/07/30 02:01:24;;;;;;;18.58;15.90;;;17.40;99.90;;;;;;5086665;28;20551;-67
2022/07/30 02:04:00;;;;;;;18.40;15.30;;;17.40;99.90;;;;;;5075316;28;20052;-68
2022/07/30 02:06:45;;;;;;;23.33;16.60;;;17.40;99.90;;;;;;5051977;28;20127;-67
2022/07/30 02:09:21;;;;;;;20.40;16.80;;;17.40;99.90;;;;;;5061089;28;20059;-67
2022/07/30 02:14:59;;;;;;;18.77;14.93;;;17.30;99.90;;;;;;5067271;28;20032;-67
2022/07/30 02:17:43;;;;;;;17.15;14.65;;;17.30;99.90;;;;;;5067351;28;20560;-67
2022/07/30 02:20:15;;;;;;;16.88;14.98;;;17.30;99.90;;;;;;5057812;28;20570;-67
2022/07/30 02:22:46;;;;;;;20.70;16.80;;;17.20;99.90;;;;;;5067839;28;20478;-68
2022/07/30 02:25:18;;;;;;;24.02;17.20;;;17.30;99.90;;;;;;5054319;28;20298;-67
2022/07/30 02:27:52;;;;;;;18.90;15.73;;;17.30;99.90;;;;;;5081411;28;20147;-68
2022/07/30 02:30:25;;;;;;;20.08;15.70;;;17.30;99.90;;;;;;5087497;28;20040;-68
2022/07/30 02:33:21;;;;;;;20.48;17.17;;;17.30;99.90;;;;;;5080556;28;20065;-67
2022/07/30 02:35:53;;;;;;;25.40;16.10;;;17.30;99.90;;;;;;5060013;28;20060;-67
2022/07/30 02:38:26;;;;;;;20.23;16.40;;;17.20;99.90;;;;;;5066488;28;20036;-67
2022/07/30 02:40:58;;;;;;;19.65;16.98;;;17.20;99.90;;;;;;5062317;28;20499;-67
2022/07/30 02:43:26;;;;;;;20.83;16.47;;;17.20;99.90;;;;;;5074937;28;20596;-67
2022/07/30 02:46:04;;;;;;;19.75;16.17;;;17.20;99.90;;;;;;5070630;28;20791;-68
2022/07/30 02:48:53;;;;;;;22.75;17.23;;;17.10;99.90;;;;;;5064604;28;20047;-68
2022/07/30 02:51:22;;;;;;;20.30;17.13;;;17.10;99.90;;;;;;5075005;28;20064;-68
2022/07/30 02:53:52;;;;;;;19.30;15.75;;;17.00;99.90;;;;;;5080223;28;20089;-68
2022/07/30 02:56:21;;;;;;;19.58;15.20;;;16.90;99.90;;;;;;5078906;28;20565;-68
2022/07/30 02:58:52;;;;;;;20.23;16.90;;;16.90;99.90;;;;;;5057254;28;20068;-68
2022/07/30 03:01:21;;;;;;;21.27;16.95;;;16.90;99.90;;;;;;5068380;28;20056;-68
2022/07/30 03:03:51;;;;;;;19.05;14.77;;;16.80;99.90;;;;;;5061709;28;20072;-68
2022/07/30 03:06:23;;;;;;;20.52;17.33;;;16.80;99.90;;;;;;5071111;28;20048;-67
2022/07/30 03:08:53;;;;;;;21.95;17.90;;;16.80;99.90;;;;;;5071847;28;20064;-68
2022/07/30 03:11:23;;;;;;;21.35;17.30;;;16.80;99.90;;;;;;5073823;28;20037;-68
2022/07/30 03:13:51;;;;;;;21.35;16.95;;;16.80;99.90;;;;;;5070994;28;20491;-68
2022/07/30 03:16:21;;;;;;;21.95;18.52;;;16.80;99.90;;;;;;5080546;28;20051;-68
2022/07/30 03:18:52;;;;;;;23.73;18.30;;;16.80;99.90;;;;;;5078870;28;20487;-67
2022/07/30 03:21:25;;;;;;;23.45;19.05;;;16.90;99.90;;;;;;5059990;28;20063;-68
2022/07/30 03:23:55;;;;;;;23.67;19.42;;;16.90;99.90;;;;;;5053882;28;20083;-68
2022/07/30 03:26:24;;;;;;;21.73;18.83;;;16.90;99.90;;;;;;5065154;28;20455;-67
2022/07/30 03:28:52;;;;;;;30.08;21.83;;;16.90;99.90;;;;;;5067604;28;20092;-66
2022/07/30 03:31:20;;;;;;;32.72;24.25;;;16.90;99.90;;;;;;5086587;28;20111;-66
2022/07/30 03:33:48;;;;;;;30.90;23.05;;;16.90;99.90;;;;;;5067641;28;20119;-67
2022/07/30 03:36:17;;;;;;;45.35;28.38;;;16.90;99.90;;;;;;5053107;28;20459;-67
2022/07/30 03:38:47;;;;;;;39.55;26.92;;;16.80;99.90;;;;;;5082287;28;20036;-67
2022/07/30 03:41:15;;;;;;;41.45;28.70;;;16.80;99.90;;;;;;5070363;28;20557;-67
2022/07/30 03:43:44;;;;;;;40.47;28.55;;;16.70;99.90;;;;;;5078440;28;20623;-66
2022/07/30 03:46:14;;;;;;;41.65;28.98;;;16.60;99.90;;;;;;5052185;28;20079;-67
2022/07/30 03:48:46;;;;;;;42.35;28.92;;;16.60;99.90;;;;;;5065760;28;20592;-66
2022/07/30 03:51:15;;;;;;;42.10;28.40;;;16.60;99.90;;;;;;5066257;28;20074;-67
2022/07/30 03:53:44;;;;;;;55.55;29.35;;;16.60;99.90;;;;;;5072458;28;20654;-66
2022/07/30 03:56:38;;;;;;;41.60;27.65;;;16.70;99.90;;;;;;5077953;28;20040;-67
2022/07/30 03:59:13;;;;;;;38.80;27.02;;;16.70;99.90;;;;;;5066414;28;20106;-66
2022/07/30 04:01:40;;;;;;;35.67;27.85;;;16.70;99.90;;;;;;5064137;28;20049;-66
2022/07/30 04:04:27;;;;;;;35.70;27.23;;;16.70;99.90;;;;;;5059592;28;20048;-68
2022/07/30 04:06:57;;;;;;;31.27;23.73;;;16.80;99.90;;;;;;5061266;28;20037;-66
2022/07/30 04:09:25;;;;;;;34.65;25.02;;;16.70;99.90;;;;;;5081815;28;20058;-67
2022/07/30 04:11:53;;;;;;;36.05;25.83;;;16.60;99.90;;;;;;5050377;28;20045;-67
2022/07/30 04:14:24;;;;;;;;;;;16.60;99.90;;;;;;5057512;28;20405;-66
2022/07/30 04:17:03;;;;;;;96.35;28.20;;;16.60;99.90;;;;;;5048241;28;20381;-66
2022/07/30 04:19:37;;;;;;;34.40;25.10;;;16.60;99.90;;;;;;5073767;28;20047;-67
2022/07/30 04:22:07;;;;;;;33.33;24.50;;;16.60;99.90;;;;;;5076767;28;20047;-66
2022/07/30 04:24:38;;;;;;;32.28;25.17;;;16.60;99.90;;;;;;5073689;28;20578;-67
2022/07/30 04:27:06;;;;;;;33.53;26.08;;;16.70;99.90;;;;;;5061301;28;20522;-67
2022/07/30 04:29:34;;;;;;;30.25;24.17;;;16.80;99.90;;;;;;5068832;28;20127;-66
2022/07/30 04:32:02;;;;;;;30.15;24.17;;;16.80;99.90;;;;;;5067114;28;20459;-66
2022/07/30 04:34:29;;;;;;;31.65;24.83;;;16.90;99.90;;;;;;5062771;28;20097;-65
2022/07/30 04:36:56;;;;;;;29.55;23.08;;;16.90;99.90;;;;;;5071978;28;20040;-66
2022/07/30 04:39:24;;;;;;;32.58;24.35;;;17.00;99.90;;;;;;5055388;28;20130;-67
2022/07/30 04:41:52;;;;;;;27.10;22.70;;;17.00;99.90;;;;;;5069625;28;20128;-66
2022/07/30 04:44:37;;;;;;;25.73;21.35;;;17.00;99.90;;;;;;5040929;28;20077;-68
2022/07/30 04:47:37;;;;;;;28.27;21.23;;;17.00;99.90;;;;;;5050756;28;20052;-67
2022/07/30 04:50:33;;;;;;;26.05;20.70;;;17.00;99.90;;;;;;5065196;28;20044;-66
2022/07/30 04:53:02;;;;;;;24.60;20.27;;;17.10;99.90;;;;;;5062640;28;20032;-66
2022/07/30 04:55:34;;;;;;;25.77;21.58;;;17.20;99.90;;;;;;5059431;28;20464;-66
2022/07/30 04:58:03;;;;;;;26.13;22.20;;;17.10;99.90;;;;;;5061235;28;20071;-66
2022/07/30 05:00:37;;;;;;;26.90;22.40;;;17.00;99.90;;;;;;5048184;28;20041;-66
2022/07/30 05:03:13;;;;;;;25.27;21.58;;;17.10;99.90;;;;;;5050799;28;20033;-67
2022/07/30 05:05:45;;;;;;;26.83;21.08;;;17.10;99.90;;;;;;5063313;28;20076;-67
2022/07/30 05:08:13;;;;;;;23.40;20.13;;;17.10;99.90;;;;;;5061721;28;20040;-67
2022/07/30 05:10:42;;;;;;;26.80;20.95;;;17.30;99.90;;;;;;5069341;28;20051;-67
2022/07/30 05:13:12;;;;;;;26.02;20.67;;;17.20;99.90;;;;;;5062253;28;20490;-67
2022/07/30 05:15:43;;;;;;;28.45;22.80;;;17.20;99.90;;;;;;5067066;28;20549;-67
2022/07/30 05:18:12;;;;;;;25.02;20.65;;;17.20;99.90;;;;;;5061456;28;20041;-67
2022/07/30 05:20:42;;;;;;;27.85;22.30;;;17.10;99.90;;;;;;5043343;28;20132;-67
2022/07/30 05:23:21;;;;;;;26.52;22.33;;;17.10;99.90;;;;;;5058125;28;20518;-66
2022/07/30 05:26:09;;;;;;;27.88;22.85;;;17.00;99.90;;;;;;5063214;28;20132;-67
2022/07/30 05:28:43;;;;;;;28.30;24.52;;;17.00;99.90;;;;;;5066952;28;20044;-67
2022/07/30 05:31:18;;;;;;;33.67;27.13;;;17.00;99.90;;;;;;5076781;28;20580;-67
2022/07/30 05:33:54;;;;;;;34.58;27.25;;;17.10;99.90;;;;;;5079932;28;20040;-67
2022/07/30 05:36:25;;;;;;;34.58;27.30;;;17.20;99.90;;;;;;5077640;28;20039;-67
2022/07/30 05:38:52;;;;;;;36.80;27.90;;;17.30;99.90;;;;;;5059048;28;20496;-67
2022/07/30 05:41:42;;;;;;;42.13;29.77;;;17.30;99.90;;;;;;5080118;28;20129;-67
2022/07/30 05:44:18;;;;;;;41.20;30.58;;;17.20;99.90;;;;;;5069010;28;20068;-66
2022/07/30 05:46:51;;;;;;;41.08;30.15;;;17.00;99.90;;;;;;5072795;28;20051;-67
2022/07/30 05:49:18;;;;;;;43.63;30.90;;;17.00;99.90;;;;;;5069369;28;20045;-67
2022/07/30 05:51:45;;;;;;;44.45;31.40;;;16.90;99.90;;;;;;5070161;28;20533;-66
2022/07/30 05:54:13;;;;;;;41.70;29.90;;;16.90;99.90;;;;;;5069524;28;20044;-66
2022/07/30 05:57:03;;;;;;;41.42;31.25;;;16.90;99.90;;;;;;5060741;28;20596;-66
2022/07/30 05:59:32;;;;;;;43.60;31.90;;;17.00;99.90;;;;;;5056316;28;20048;-65
2022/07/30 06:02:23;;;;;;;40.65;30.35;;;17.00;99.90;;;;;;5065315;28;20044;-66
2022/07/30 06:05:22;;;;;;;41.72;29.85;;;17.10;99.90;;;;;;5006140;28;20494;-67
2022/07/30 06:07:50;;;;;;;35.63;26.38;;;17.30;99.90;;;;;;4991792;28;20054;-66
2022/07/30 06:10:20;;;;;;;33.40;26.02;;;17.50;99.90;;;;;;4995715;28;20531;-67
2022/07/30 06:12:48;;;;;;;33.85;26.10;;;17.80;99.90;;;;;;4992185;28;20501;-66
2022/07/30 06:15:17;;;;;;;28.35;22.90;;;17.80;99.90;;;;;;5007685;28;20049;-67
2022/07/30 06:17:53;;;;;;;30.77;24.42;;;17.80;99.90;;;;;;4994046;28;20044;-67
2022/07/30 06:20:41;;;;;;;29.88;22.75;;;18.00;99.90;;;;;;5008924;28;20044;-67
2022/07/30 06:23:19;;;;;;;26.75;21.30;;;18.20;99.90;;;;;;5003105;28;20042;-67
2022/07/30 06:26:00;;;;;;;27.40;21.73;;;18.30;99.90;;;;;;4999888;28;20041;-67
2022/07/30 06:28:28;;;;;;;23.52;19.23;;;18.50;99.90;;;;;;4982933;28;20528;-68
2022/07/30 06:31:15;;;;;;;22.75;18.85;;;18.70;99.90;;;;;;4997734;28;20326;-67
2022/07/30 06:33:42;;;;;;;20.10;17.55;;;18.60;99.90;;;;;;5006534;28;20053;-67
2022/07/30 06:36:10;;;;;;;21.27;16.83;;;18.50;99.90;;;;;;4997169;28;20154;-67
2022/07/30 06:39:01;;;;;;;19.38;16.38;;;18.50;99.90;;;;;;5001147;28;20093;-67
2022/07/30 06:41:57;;;;;;;19.17;15.30;;;18.60;99.90;;;;;;5046222;28;20453;-66
2022/07/30 06:44:43;;;;;;;18.40;14.88;;;18.90;99.90;;;;;;5072693;28;20560;-66
2022/07/30 06:47:11;;;;;;;18.48;13.98;;;18.90;99.90;;;;;;5051987;28;20051;-67
2022/07/30 06:49:40;;;;;;;18.77;13.85;;;18.80;99.90;;;;;;5051884;28;20044;-66
2022/07/30 06:52:09;;;;;;;16.92;13.43;;;19.00;99.90;;;;;;5073069;28;20450;-67
2022/07/30 06:54:46;;;;;;;16.95;12.40;;;19.10;99.90;;;;;;5069091;28;20149;-67
2022/07/30 06:57:19;;;;;;;15.00;11.77;;;19.30;99.90;;;;;;5074255;28;20502;-67
2022/07/30 06:59:48;;;;;;;16.27;11.52;;;19.30;99.90;;;;;;5067022;28;20044;-67
2022/07/30 07:02:31;;;;;;;12.43;10.77;;;19.50;99.90;;;;;;5052580;28;20053;-67
2022/07/30 07:05:12;;;;;;;12.95;10.55;;;19.60;99.90;;;;;;5065870;28;20443;-67
2022/07/30 07:07:44;;;;;;;;;;;19.60;99.90;;;;;;5075425;28;20455;-68
2022/07/30 07:10:26;;;;;;;14.00;10.80;;;19.50;99.90;;;;;;5078737;28;19981;-68
2022/07/30 07:13:02;;;;;;;14.63;10.93;;;19.40;99.90;;;;;;5079301;28;20090;-66
2022/07/30 07:15:34;;;;;;;14.75;11.32;;;19.40;99.90;;;;;;5079530;28;20507;-66
2022/07/30 07:18:05;;;;;;;;;;;19.40;99.90;;;;;;5052455;28;20557;-66
2022/07/30 07:20:38;;;;;;;;;;;19.70;99.90;;;;;;5074393;28;19920;-66
2022/07/30 07:23:07;;;;;;;13.25;10.73;;;19.70;99.90;;;;;;5065529;28;20308;-67
2022/07/30 07:25:40;;;;;;;11.23;9.95;;;19.80;99.90;;;;;;5072040;28;20041;-67
2022/07/30 07:28:08;;;;;;;12.57;10.30;;;19.60;99.90;;;;;;5062539;28;20040;-67
2022/07/30 07:30:42;;;;;;;13.07;8.60;;;19.70;99.90;;;;;;5070245;28;20446;-67
2022/07/30 07:33:11;;;;;;;10.60;8.40;;;19.70;99.90;;;;;;5067350;28;20046;-67
2022/07/30 07:35:43;;;;;;;11.75;8.02;;;19.70;99.90;;;;;;5063286;28;20095;-69
2022/07/30 07:38:27;;;;;;;12.00;10.25;;;19.50;99.90;;;;;;5068560;28;20494;-68
2022/07/30 07:40:55;;;;;;;15.23;10.43;;;19.60;99.90;;;;;;5062418;28;20127;-68
2022/07/30 07:43:24;;;;;;;14.02;11.43;;;19.60;99.90;;;;;;5072507;28;20079;-67
2022/07/30 07:45:54;;;;;;;12.38;11.07;;;19.70;99.90;;;;;;5071576;28;20055;-67
2022/07/30 07:48:24;;;;;;;15.98;10.00;;;19.50;99.90;;;;;;5080684;28;20414;-68
2022/07/30 07:50:57;;;;;;;11.50;9.50;;;19.30;99.90;;;;;;5077650;28;20040;-67
2022/07/30 07:53:29;;;;;;;13.20;10.10;;;19.60;99.90;;;;;;5063191;28;20039;-67
2022/07/30 07:55:58;;;;;;;13.15;10.40;;;19.90;99.90;;;;;;5075448;28;20097;-66
2022/07/30 07:58:26;;;;;;;13.60;9.93;;;20.10;99.90;;;;;;5081175;28;20041;-66
2022/07/30 08:00:57;;;;;;;11.43;9.73;;;20.20;99.90;;;;;;5076434;28;20045;-66
2022/07/30 08:03:44;;;;;;;11.30;9.38;;;20.00;99.90;;;;;;5054010;28;20123;-67
2022/07/30 08:06:35;;;;;;;12.65;9.07;;;19.80;99.90;;;;;;5064160;28;20347;-68
2022/07/30 08:09:28;;;;;;;11.25;8.77;;;19.90;99.90;;;;;;5053172;28;20052;-68
2022/07/30 08:12:37;;;;;;;9.73;8.13;;;20.30;99.90;;;;;;5040281;28;20067;-68
2022/07/30 08:15:16;;;;;;;11.68;9.07;;;20.50;99.90;;;;;;5072170;28;20044;-66
2022/07/30 08:18:10;;;;;;;14.25;8.07;;;20.70;99.90;;;;;;5080303;28;20510;-69
2022/07/30 08:20:43;;;;;;;10.85;7.80;;;20.90;99.90;;;;;;5066817;28;20044;-66
2022/07/30 08:23:12;;;;;;;9.45;8.30;;;20.80;99.90;;;;;;5059223;28;20064;-66
2022/07/30 08:25:39;;;;;;;10.20;8.90;;;20.80;99.90;;;;;;5066628;28;20098;-66
2022/07/30 08:28:07;;;;;;;10.23;8.52;;;20.60;99.90;;;;;;5060366;28;20036;-66
2022/07/30 08:30:54;;;;;;;11.75;8.85;;;20.40;99.90;;;;;;5081675;28;20059;-67
2022/07/30 08:33:26;;;;;;;12.38;8.45;;;20.40;99.90;;;;;;5071571;28;20451;-67
2022/07/30 08:35:54;;;;;;;11.15;8.88;;;20.70;99.90;;;;;;5066840;28;20083;-66
2022/07/30 08:38:31;;;;;;;11.30;8.35;;;20.70;99.90;;;;;;5036024;28;20143;-67
2022/07/30 08:40:59;;;;;;;10.48;8.98;;;20.90;99.90;;;;;;5074889;28;20437;-67
2022/07/30 08:43:26;;;;;;;8.80;7.90;;;21.00;99.90;;;;;;5064376;28;20420;-68
2022/07/30 08:45:56;;;;;;;9.57;8.32;;;21.10;99.90;;;;;;5049113;28;20052;-68
2022/07/30 08:48:47;;;;;;;9.38;8.35;;;21.20;99.90;;;;;;5059215;28;20113;-66
2022/07/30 08:51:18;;;;;;;10.38;9.13;;;21.30;99.90;;;;;;5066726;28;20040;-66
2022/07/30 08:54:05;;;;;;;11.82;9.07;;;21.30;99.90;;;;;;5062358;28;20037;-65
2022/07/30 08:56:33;;;;;;;10.00;8.32;;;21.20;99.90;;;;;;5056916;28;20532;-65
2022/07/30 08:59:01;;;;;;;13.43;8.38;;;21.10;99.90;;;;;;5073635;28;20036;-66
2022/07/30 09:01:28;;;;;;;9.30;8.32;;;21.50;99.90;;;;;;5071185;28;20106;-67
2022/07/30 09:03:56;;;;;;;10.77;8.27;;;21.50;99.90;;;;;;5058843;28;20124;-65
2022/07/30 09:06:26;;;;;;;9.77;8.77;;;21.30;99.90;;;;;;5070085;28;20040;-66
2022/07/30 09:08:54;;;;;;;10.93;8.10;;;21.20;99.90;;;;;;5081451;28;20046;-66
2022/07/30 09:11:21;;;;;;;9.23;7.80;;;21.30;99.90;;;;;;5082948;28;20124;-66
2022/07/30 09:13:50;;;;;;;9.68;8.00;;;21.10;99.90;;;;;;5078088;28;20448;-67
2022/07/30 09:16:23;;;;;;;9.80;8.38;;;21.00;99.90;;;;;;5086826;28;20502;-67
2022/07/30 09:18:53;;;;;;;10.38;8.98;;;21.10;99.90;;;;;;5067695;28;20621;-66
2022/07/30 09:21:27;;;;;;;9.88;8.05;;;21.10;99.90;;;;;;5072594;28;20460;-66
2022/07/30 09:24:12;;;;;;;9.30;8.23;;;21.30;99.90;;;;;;5079398;28;20052;-67
2022/07/30 09:27:01;;;;;;;12.45;8.00;;;21.50;99.90;;;;;;5064859;28;20182;-67
2022/07/30 09:29:57;;;;;;;10.27;7.43;;;21.50;99.90;;;;;;5060959;28;20039;-68
2022/07/30 09:32:53;;;;;;;8.80;7.70;;;21.90;99.90;;;;;;5087633;28;20446;-67
2022/07/30 09:35:41;;;;;;;8.50;7.03;;;22.00;99.90;;;;;;5065581;28;20120;-66
2022/07/30 09:38:09;;;;;;;8.07;6.65;;;21.80;99.90;;;;;;5075940;28;20514;-67
2022/07/30 09:40:57;;;;;;;7.18;6.47;;;22.10;99.90;;;;;;5045387;28;20114;-64
2022/07/30 09:43:50;;;;;;;7.00;5.70;;;22.40;99.90;;;;;;5067511;28;20047;-66
2022/07/30 09:46:50;;;;;;;7.35;6.55;;;22.90;99.90;;;;;;5081979;28;20477;-66
2022/07/30 09:49:27;;;;;;;7.75;6.72;;;23.10;99.90;;;;;;5073494;28;20046;-66
2022/07/30 09:51:56;;;;;;;8.23;6.70;;;22.90;99.90;;;;;;5065824;28;20047;-66
2022/07/30 09:54:49;;;;;;;8.68;6.53;;;22.90;99.90;;;;;;5056852;28;20480;-66
2022/07/30 09:57:23;;;;;;;6.68;5.97;;;22.80;99.90;;;;;;5066243;28;20403;-66
2022/07/30 10:00:22;;;;;;;7.97;6.55;;;22.70;99.90;;;;;;5071571;28;20116;-65
2022/07/30 10:03:21;;;;;;;7.82;5.70;;;22.90;99.90;;;;;;5068324;28;20043;-65
2022/07/30 10:06:35;;;;;;;9.30;6.13;;;23.20;99.90;;;;;;5058162;28;20064;-65
2022/07/30 10:09:34;;;;;;;6.03;5.20;;;23.40;99.90;;;;;;5043382;28;20083;-66
2022/07/30 10:12:09;;;;;;;6.85;5.65;;;23.60;99.90;;;;;;5073578;28;20117;-67
2022/07/30 10:14:46;;;;;;;6.70;6.00;;;23.50;99.90;;;;;;5079486;28;20440;-66
2022/07/30 10:17:17;;;;;;;10.57;6.57;;;23.50;99.90;;;;;;5057460;28;20071;-68
2022/07/30 10:19:57;;;;;;;6.93;6.22;;;23.40;99.90;;;;;;5053526;28;20119;-68
2022/07/30 10:22:58;;;;;;;8.63;6.43;;;23.40;99.90;;;;;;5054918;28;20509;-67
2022/07/30 10:25:31;;;;;;;8.77;5.65;;;23.50;99.90;;;;;;5075079;28;20383;-68
2022/07/30 10:28:07;;;;;;;12.48;6.10;;;23.60;99.90;;;;;;5067795;28;20133;-68
2022/07/30 10:30:35;;;;;;;7.03;5.60;;;23.80;99.90;;;;;;5072059;28;20048;-68
2022/07/30 10:33:03;;;;;;;7.97;6.00;;;24.00;99.90;;;;;;5063934;28;20538;-68
2022/07/30 10:35:31;;;;;;;7.32;6.00;;;24.00;99.90;;;;;;5057510;28;20037;-67
2022/07/30 10:38:10;;;;;;;6.90;5.90;;;24.10;99.90;;;;;;5076876;28;20123;-68
2022/07/30 10:40:45;;;;;;;6.03;5.43;;;24.10;99.90;;;;;;5068121;28;20439;-67
2022/07/30 10:43:44;;;;;;;6.80;5.40;;;24.40;99.90;;;;;;5076555;28;20524;-68
2022/07/30 10:46:32;;;;;;;6.97;5.88;;;24.70;99.90;;;;;;5059400;28;20502;-67
2022/07/30 10:49:14;;;;;;;8.98;6.00;;;24.60;99.90;;;;;;5071766;28;20482;-68
2022/07/30 10:51:55;;;;;;;9.90;6.13;;;24.90;99.90;;;;;;5080591;28;20044;-68
2022/07/30 10:54:46;;;;;;;6.95;6.07;;;24.70;99.90;;;;;;5076548;28;20052;-68
2022/07/30 10:57:13;;;;;;;9.18;6.20;;;25.00;99.90;;;;;;5061076;28;20473;-67
2022/07/30 11:00:00;;;;;;;6.93;6.07;;;24.70;99.90;;;;;;5063380;28;20068;-67
2022/07/30 11:02:33;;;;;;;6.95;6.13;;;24.50;99.90;;;;;;5077420;28;20048;-67
2022/07/30 11:05:17;;;;;;;7.00;6.30;;;24.40;99.90;;;;;;5053645;28;20041;-67
2022/07/30 11:08:34;;;;;;;6.70;6.10;;;24.20;99.90;;;;;;5068674;28;20040;-67
2022/07/30 11:11:04;;;;;;;6.85;6.20;;;24.10;99.90;;;;;;5068052;28;20035;-67
2022/07/30 11:13:51;;;;;;;7.10;6.00;;;23.80;99.90;;;;;;5073224;28;20052;-66
2022/07/30 11:16:22;;;;;;;9.40;6.40;;;23.60;99.90;;;;;;5074997;28;20041;-67
2022/07/30 11:19:15;;;;;;;7.85;6.53;;;23.50;99.90;;;;;;5084635;28;20420;-67
2022/07/30 11:22:24;;;;;;;7.53;5.72;;;23.40;99.90;;;;;;5077548;28;20040;-68
2022/07/30 11:24:52;;;;;;;8.23;6.35;;;23.10;99.90;;;;;;5049551;28;20041;-65
2022/07/30 11:27:38;;;;;;;8.13;6.40;;;23.20;99.90;;;;;;5065515;28;20498;-66
2022/07/30 11:30:17;;;;;;;7.45;5.93;;;23.30;99.90;;;;;;5062841;28;20044;-66
2022/07/30 11:32:53;;;;;;;6.53;5.93;;;23.60;99.90;;;;;;5076845;28;20250;-67
2022/07/30 11:35:24;;;;;;;7.07;6.43;;;23.70;99.90;;;;;;5087598;28;20062;-66
2022/07/30 11:38:07;;;;;;;7.13;6.43;;;23.60;99.90;;;;;;5078178;28;20112;-66
2022/07/30 11:40:41;;;;;;;7.25;5.90;;;23.60;99.90;;;;;;5055840;28;20109;-66
2022/07/30 11:43:34;;;;;;;7.47;6.28;;;23.60;99.90;;;;;;5068176;28;20139;-65
2022/07/30 11:46:11;;;;;;;6.80;6.20;;;23.90;99.90;;;;;;5066643;28;20056;-65
2022/07/30 11:48:56;;;;;;;6.78;6.13;;;24.10;99.90;;;;;;5072484;28;20498;-65
2022/07/30 11:51:24;;;;;;;7.72;6.05;;;24.50;99.90;;;;;;5061116;28;20140;-66
2022/07/30 11:54:05;;;;;;;7.13;5.97;;;24.70;99.90;;;;;;5065904;28;20119;-66
2022/07/30 11:56:33;;;;;;;7.65;6.68;;;24.50;99.90;;;;;;5073658;28;20495;-66
2022/07/30 11:59:03;;;;;;;9.20;6.20;;;25.20;99.90;;;;;;5081536;28;20036;-65
2022/07/30 12:01:33;;;;;;;6.68;5.88;;;24.80;99.90;;;;;;5074108;28;20028;-66
2022/07/30 12:04:03;;;;;;;8.00;5.97;;;24.70;99.90;;;;;;5045153;28;20059;-67
2022/07/30 12:06:31;;;;;;;7.13;6.22;;;24.40;99.90;;;;;;5072544;28;20062;-66
2022/07/30 12:08:59;;;;;;;6.50;5.90;;;24.40;99.90;;;;;;5081866;28;20040;-66
2022/07/30 12:11:36;;;;;;;6.72;6.10;;;24.30;99.90;;;;;;5084529;28;20417;-66
2022/07/30 12:14:05;;;;;;;9.35;7.18;;;24.50;99.90;;;;;;5085590;28;20462;-66
2022/07/30 12:16:34;;;;;;;6.43;5.82;;;24.60;99.90;;;;;;5089401;28;20044;-66
2022/07/30 12:19:05;;;;;;;9.25;6.80;;;24.70;99.90;;;;;;5060806;28;20032;-66
2022/07/30 12:21:36;;;;;;;6.78;6.18;;;24.40;99.90;;;;;;5070358;28;20049;-66
2022/07/30 12:24:11;;;;;;;6.78;6.18;;;24.30;99.90;;;;;;5079726;28;20088;-65
2022/07/30 12:26:39;;;;;;;7.72;6.35;;;24.20;99.90;;;;;;5069676;28;20478;-66
2022/07/30 12:29:10;;;;;;;6.70;6.00;;;23.80;99.90;;;;;;5073830;28;20085;-67
2022/07/30 12:31:39;;;;;;;8.23;6.47;;;23.40;99.90;;;;;;5083555;28;20070;-65
2022/07/30 12:34:24;;;;;;;13.20;7.00;;;23.20;99.90;;;;;;5059552;28;20090;-65
2022/07/30 12:36:52;;;;;;;11.27;7.50;;;22.40;99.90;;;;;;5066414;28;20083;-64
2022/07/30 12:39:25;;;;;;;11.27;7.05;;;22.10;99.90;;;;;;5077998;28;20417;-64
2022/07/30 12:41:54;;;;;;;9.85;6.80;;;21.70;99.90;;;;;;5077611;28;20103;-65
2022/07/30 12:44:38;;;;;;;15.52;6.97;;;21.80;99.90;;;;;;5086395;28;20413;-66
2022/07/30 12:47:25;;;;;;;11.65;7.15;;;21.80;99.90;;;;;;5063915;28;20101;-65
2022/07/30 12:49:57;;;;;;;9.48;6.90;;;22.00;99.90;;;;;;5063267;28;20037;-67
2022/07/30 12:52:34;;;;;;;8.13;6.80;;;22.40;99.90;;;;;;5081444;28;20044;-65
2022/07/30 12:55:11;;;;;;;8.18;6.68;;;22.70;99.90;;;;;;5071187;28;20057;-65
2022/07/30 12:57:59;;;;;;;10.40;6.90;;;22.80;99.90;;;;;;5067255;28;20075;-66
2022/07/30 13:00:43;;;;;;;10.07;6.50;;;23.40;99.90;;;;;;5056671;28;20045;-66
2022/07/30 13:03:27;;;;;;;9.80;6.65;;;23.90;99.90;;;;;;5072631;28;20063;-66
2022/07/30 13:06:00;;;;;;;7.75;6.93;;;25.10;99.90;;;;;;5080832;28;20041;-67
2022/07/30 13:08:50;;;;;;;7.53;6.57;;;25.80;99.90;;;;;;5068321;28;20045;-66
2022/07/30 13:11:22;;;;;;;10.80;6.22;;;27.00;99.90;;;;;;5074425;28;20363;-66
2022/07/30 13:13:51;;;;;;;7.43;5.72;;;27.70;99.90;;;;;;5075829;28;20063;-69
2022/07/30 13:16:20;;;;;;;10.55;6.40;;;28.00;99.90;;;;;;5072825;28;20040;-66
2022/07/30 13:18:48;;;;;;;12.43;5.93;;;28.00;99.90;;;;;;5049331;28;20044;-66